sensor_id;sensor_type;location;lat;lon;timestamp;P1;durP1;ratioP1;P2;durP2;ratioP2
9884;SDS011;4981;50.966;4.842;2024-02-16T00:01:47;104.13;;;94.43;;
9884;SDS011;4981;50.966;4.842;2024-02-16T00:04:14;100.37;;;91.47;;
9884;SDS011;4981;50.966;4.842;2024-02-16T00:06:41;148.60;;;135.97;;
9884;SDS011;4981;50.966;4.842;2024-02-16T00:09:08;146.63;;;134.00;;
9884;SDS011;4981;50.966;4.842;2024-02-16T00:11:37;178.17;;;163.77;;
9884;SDS011;4981;50.966;4.842;2024-02-16T00:14:04;126.30;;;115.93;;
9884;SDS011;4981;50.966;4.842;2024-02-16T00:16:31;137.50;;;125.30;;
9884;SDS011;4981;50.966;4.842;2024-02-16T00:18:58;144.90;;;132.00;;
9884;SDS011;4981;50.966;4.842;2024-02-16T00:21:25;190.47;;;173.40;;
9884;SDS011;4981;50.966;4.842;2024-02-16T00:23:52;117.87;;;106.53;;
9884;SDS011;4981;50.966;4.842;2024-02-16T00:26:19;88.83;;;79.93;;
9884;SDS011;4981;50.966;4.842;2024-02-16T00:28:47;64.57;;;58.07;;
9884;SDS011;4981;50.966;4.842;2024-02-16T00:31:14;119.83;;;108.70;;
9884;SDS011;4981;50.966;4.842;2024-02-16T00:33:41;17.30;;;10.77;;
9884;SDS011;4981;50.966;4.842;2024-02-16T00:36:08;55.50;;;49.60;;
9884;SDS011;4981;50.966;4.842;2024-02-16T00:38:35;30.83;;;26.50;;
9884;SDS011;4981;50.966;4.842;2024-02-16T00:41:02;137.03;;;125.43;;
9884;SDS011;4981;50.966;4.842;2024-02-16T00:43:30;72.17;;;62.63;;
9884;SDS011;4981;50.966;4.842;2024-02-16T00:45:58;228.13;;;207.97;;
9884;SDS011;4981;50.966;4.842;2024-02-16T00:48:25;46.77;;;39.33;;
9884;SDS011;4981;50.966;4.842;2024-02-16T00:50:52;64.63;;;56.43;;
9884;SDS011;4981;50.966;4.842;2024-02-16T00:53:19;50.13;;;44.97;;
9884;SDS011;4981;50.966;4.842;2024-02-16T00:55:46;102.93;;;92.20;;
9884;SDS011;4981;50.966;4.842;2024-02-16T00:58:13;123.67;;;112.63;;
9884;SDS011;4981;50.966;4.842;2024-02-16T01:00:40;9.93;;;5.63;;
9884;SDS011;4981;50.966;4.842;2024-02-16T01:03:10;14.90;;;8.40;;
9884;SDS011;4981;50.966;4.842;2024-02-16T01:05:38;14.83;;;6.37;;
9884;SDS011;4981;50.966;4.842;2024-02-16T01:08:05;32.20;;;27.73;;
9884;SDS011;4981;50.966;4.842;2024-02-16T01:10:32;29.07;;;25.50;;
9884;SDS011;4981;50.966;4.842;2024-02-16T01:12:59;70.67;;;64.30;;
9884;SDS011;4981;50.966;4.842;2024-02-16T01:15:28;128.73;;;116.97;;
9884;SDS011;4981;50.966;4.842;2024-02-16T01:17:55;145.53;;;132.23;;
9884;SDS011;4981;50.966;4.842;2024-02-16T01:20:26;131.47;;;119.17;;
9884;SDS011;4981;50.966;4.842;2024-02-16T01:22:56;147.73;;;135.73;;
9884;SDS011;4981;50.966;4.842;2024-02-16T01:25:23;59.20;;;53.83;;
9884;SDS011;4981;50.966;4.842;2024-02-16T01:27:50;55.40;;;43.60;;
9884;SDS011;4981;50.966;4.842;2024-02-16T01:30:17;89.70;;;81.27;;
9884;SDS011;4981;50.966;4.842;2024-02-16T01:32:45;128.20;;;116.13;;
9884;SDS011;4981;50.966;4.842;2024-02-16T01:35:12;15.90;;;8.53;;
9884;SDS011;4981;50.966;4.842;2024-02-16T01:37:41;38.43;;;34.47;;
9884;SDS011;4981;50.966;4.842;2024-02-16T01:40:09;76.70;;;68.93;;
9884;SDS011;4981;50.966;4.842;2024-02-16T01:42:39;163.47;;;148.97;;
9884;SDS011;4981;50.966;4.842;2024-02-16T01:45:07;122.57;;;111.23;;
9884;SDS011;4981;50.966;4.842;2024-02-16T01:47:35;124.37;;;113.00;;
9884;SDS011;4981;50.966;4.842;2024-02-16T01:50:03;51.60;;;29.27;;
9884;SDS011;4981;50.966;4.842;2024-02-16T01:52:32;98.30;;;78.93;;
9884;SDS011;4981;50.966;4.842;2024-02-16T01:55:03;20.33;;;12.97;;
9884;SDS011;4981;50.966;4.842;2024-02-16T01:57:32;87.70;;;79.07;;
9884;SDS011;4981;50.966;4.842;2024-02-16T01:59:59;57.63;;;41.17;;
9884;SDS011;4981;50.966;4.842;2024-02-16T02:02:26;140.63;;;127.43;;
9884;SDS011;4981;50.966;4.842;2024-02-16T02:04:53;39.73;;;35.43;;
9884;SDS011;4981;50.966;4.842;2024-02-16T02:07:24;25.23;;;19.13;;
9884;SDS011;4981;50.966;4.842;2024-02-16T02:09:52;117.03;;;106.07;;
9884;SDS011;4981;50.966;4.842;2024-02-16T02:12:20;146.00;;;133.80;;
9884;SDS011;4981;50.966;4.842;2024-02-16T02:14:48;160.30;;;146.10;;
9884;SDS011;4981;50.966;4.842;2024-02-16T02:17:15;94.00;;;85.17;;
9884;SDS011;4981;50.966;4.842;2024-02-16T02:19:44;117.87;;;107.57;;
9884;SDS011;4981;50.966;4.842;2024-02-16T02:22:15;42.00;;;29.43;;
9884;SDS011;4981;50.966;4.842;2024-02-16T02:24:42;16.97;;;8.50;;
9884;SDS011;4981;50.966;4.842;2024-02-16T02:27:09;25.43;;;19.03;;
9884;SDS011;4981;50.966;4.842;2024-02-16T02:29:36;38.67;;;18.60;;
9884;SDS011;4981;50.966;4.842;2024-02-16T02:32:04;11.87;;;5.97;;
9884;SDS011;4981;50.966;4.842;2024-02-16T02:34:31;8.60;;;4.50;;
9884;SDS011;4981;50.966;4.842;2024-02-16T02:36:58;10.47;;;5.40;;
9884;SDS011;4981;50.966;4.842;2024-02-16T02:39:27;20.90;;;9.67;;
9884;SDS011;4981;50.966;4.842;2024-02-16T02:41:54;12.73;;;6.20;;
9884;SDS011;4981;50.966;4.842;2024-02-16T02:44:23;12.93;;;6.70;;
9884;SDS011;4981;50.966;4.842;2024-02-16T02:46:50;3.67;;;2.27;;
9884;SDS011;4981;50.966;4.842;2024-02-16T02:49:17;15.37;;;8.93;;
9884;SDS011;4981;50.966;4.842;2024-02-16T02:51:44;7.33;;;3.77;;
9884;SDS011;4981;50.966;4.842;2024-02-16T02:54:11;19.57;;;7.97;;
9884;SDS011;4981;50.966;4.842;2024-02-16T02:56:39;21.40;;;12.33;;
9884;SDS011;4981;50.966;4.842;2024-02-16T02:59:06;142.10;;;99.70;;
9884;SDS011;4981;50.966;4.842;2024-02-16T03:01:35;65.13;;;58.67;;
9884;SDS011;4981;50.966;4.842;2024-02-16T03:04:03;90.27;;;81.47;;
9884;SDS011;4981;50.966;4.842;2024-02-16T03:06:31;176.60;;;161.90;;
9884;SDS011;4981;50.966;4.842;2024-02-16T03:08:58;447.83;;;415.90;;
9884;SDS011;4981;50.966;4.842;2024-02-16T03:11:25;23.43;;;15.00;;
9884;SDS011;4981;50.966;4.842;2024-02-16T03:13:54;180.77;;;164.07;;
9884;SDS011;4981;50.966;4.842;2024-02-16T03:16:21;147.33;;;132.83;;
9884;SDS011;4981;50.966;4.842;2024-02-16T03:18:48;182.73;;;164.20;;
9884;SDS011;4981;50.966;4.842;2024-02-16T03:21:15;152.23;;;138.30;;
9884;SDS011;4981;50.966;4.842;2024-02-16T03:23:42;114.80;;;104.10;;
9884;SDS011;4981;50.966;4.842;2024-02-16T03:26:15;149.33;;;135.90;;
9884;SDS011;4981;50.966;4.842;2024-02-16T03:28:43;240.93;;;221.07;;
9884;SDS011;4981;50.966;4.842;2024-02-16T03:31:18;71.03;;;63.77;;
9884;SDS011;4981;50.966;4.842;2024-02-16T03:33:45;49.37;;;32.20;;
9884;SDS011;4981;50.966;4.842;2024-02-16T03:36:12;57.07;;;49.30;;
9884;SDS011;4981;50.966;4.842;2024-02-16T03:38:41;92.30;;;83.90;;
9884;SDS011;4981;50.966;4.842;2024-02-16T03:41:12;140.37;;;127.23;;
9884;SDS011;4981;50.966;4.842;2024-02-16T03:43:41;167.33;;;152.33;;
9884;SDS011;4981;50.966;4.842;2024-02-16T03:46:09;300.23;;;276.53;;
9884;SDS011;4981;50.966;4.842;2024-02-16T03:48:37;142.27;;;128.97;;
9884;SDS011;4981;50.966;4.842;2024-02-16T03:51:05;320.47;;;295.77;;
9884;SDS011;4981;50.966;4.842;2024-02-16T03:53:33;138.33;;;125.10;;
9884;SDS011;4981;50.966;4.842;2024-02-16T03:56:00;180.33;;;163.73;;
9884;SDS011;4981;50.966;4.842;2024-02-16T03:58:27;152.70;;;137.73;;
9884;SDS011;4981;50.966;4.842;2024-02-16T04:00:54;203.80;;;186.00;;
9884;SDS011;4981;50.966;4.842;2024-02-16T04:03:21;136.00;;;122.90;;
9884;SDS011;4981;50.966;4.842;2024-02-16T04:05:49;196.37;;;178.73;;
9884;SDS011;4981;50.966;4.842;2024-02-16T04:08:18;153.87;;;138.60;;
9884;SDS011;4981;50.966;4.842;2024-02-16T04:10:47;141.63;;;127.40;;
9884;SDS011;4981;50.966;4.842;2024-02-16T04:13:14;89.53;;;81.37;;
9884;SDS011;4981;50.966;4.842;2024-02-16T04:15:41;46.17;;;41.43;;
9884;SDS011;4981;50.966;4.842;2024-02-16T04:18:08;46.23;;;41.73;;
9884;SDS011;4981;50.966;4.842;2024-02-16T04:20:35;204.87;;;186.47;;
9884;SDS011;4981;50.966;4.842;2024-02-16T04:23:04;159.17;;;143.60;;
9884;SDS011;4981;50.966;4.842;2024-02-16T04:25:31;119.17;;;107.63;;
9884;SDS011;4981;50.966;4.842;2024-02-16T04:27:58;89.43;;;80.77;;
9884;SDS011;4981;50.966;4.842;2024-02-16T04:30:24;141.77;;;128.73;;
9884;SDS011;4981;50.966;4.842;2024-02-16T04:32:51;85.93;;;77.40;;
9884;SDS011;4981;50.966;4.842;2024-02-16T04:35:18;125.10;;;113.47;;
9884;SDS011;4981;50.966;4.842;2024-02-16T04:37:45;65.73;;;58.63;;
9884;SDS011;4981;50.966;4.842;2024-02-16T04:40:14;20.63;;;9.50;;
9884;SDS011;4981;50.966;4.842;2024-02-16T04:42:41;21.67;;;9.53;;
9884;SDS011;4981;50.966;4.842;2024-02-16T04:45:10;15.07;;;6.17;;
9884;SDS011;4981;50.966;4.842;2024-02-16T04:47:38;24.57;;;11.90;;
9884;SDS011;4981;50.966;4.842;2024-02-16T04:50:05;80.77;;;38.20;;
9884;SDS011;4981;50.966;4.842;2024-02-16T04:52:35;24.23;;;12.80;;
9884;SDS011;4981;50.966;4.842;2024-02-16T04:55:03;28.40;;;17.50;;
9884;SDS011;4981;50.966;4.842;2024-02-16T04:57:33;37.57;;;33.23;;
9884;SDS011;4981;50.966;4.842;2024-02-16T05:00:00;43.07;;;23.57;;
9884;SDS011;4981;50.966;4.842;2024-02-16T05:02:27;122.33;;;110.73;;
9884;SDS011;4981;50.966;4.842;2024-02-16T05:04:54;117.60;;;106.47;;
9884;SDS011;4981;50.966;4.842;2024-02-16T05:07:21;144.33;;;130.77;;
9884;SDS011;4981;50.966;4.842;2024-02-16T05:09:48;194.67;;;178.73;;
9884;SDS011;4981;50.966;4.842;2024-02-16T05:12:20;156.60;;;143.03;;
9884;SDS011;4981;50.966;4.842;2024-02-16T05:14:49;91.00;;;78.77;;
9884;SDS011;4981;50.966;4.842;2024-02-16T05:17:18;148.13;;;134.83;;
9884;SDS011;4981;50.966;4.842;2024-02-16T05:19:46;173.50;;;157.17;;
9884;SDS011;4981;50.966;4.842;2024-02-16T05:22:12;179.80;;;162.60;;
9884;SDS011;4981;50.966;4.842;2024-02-16T05:24:40;207.67;;;190.57;;
9884;SDS011;4981;50.966;4.842;2024-02-16T05:27:07;187.13;;;171.50;;
9884;SDS011;4981;50.966;4.842;2024-02-16T05:29:35;119.97;;;108.03;;
9884;SDS011;4981;50.966;4.842;2024-02-16T05:32:04;74.63;;;67.60;;
9884;SDS011;4981;50.966;4.842;2024-02-16T05:34:31;148.67;;;134.97;;
9884;SDS011;4981;50.966;4.842;2024-02-16T05:37:03;127.00;;;115.27;;
9884;SDS011;4981;50.966;4.842;2024-02-16T05:39:31;137.17;;;124.03;;
9884;SDS011;4981;50.966;4.842;2024-02-16T05:42:00;81.10;;;73.47;;
9884;SDS011;4981;50.966;4.842;2024-02-16T05:44:28;132.73;;;120.20;;
9884;SDS011;4981;50.966;4.842;2024-02-16T05:46:55;133.67;;;120.90;;
9884;SDS011;4981;50.966;4.842;2024-02-16T05:49:23;150.80;;;136.57;;
9884;SDS011;4981;50.966;4.842;2024-02-16T05:51:50;297.60;;;271.73;;
9884;SDS011;4981;50.966;4.842;2024-02-16T05:54:40;113.53;;;102.70;;
9884;SDS011;4981;50.966;4.842;2024-02-16T05:57:07;125.40;;;113.37;;
9884;SDS011;4981;50.966;4.842;2024-02-16T05:59:34;135.33;;;122.10;;
9884;SDS011;4981;50.966;4.842;2024-02-16T06:02:03;137.20;;;123.70;;
9884;SDS011;4981;50.966;4.842;2024-02-16T06:04:32;127.77;;;115.77;;
9884;SDS011;4981;50.966;4.842;2024-02-16T06:07:00;82.17;;;74.03;;
9884;SDS011;4981;50.966;4.842;2024-02-16T06:09:26;67.77;;;60.77;;
9884;SDS011;4981;50.966;4.842;2024-02-16T06:12:00;59.00;;;53.03;;
9884;SDS011;4981;50.966;4.842;2024-02-16T06:14:29;159.13;;;144.33;;
9884;SDS011;4981;50.966;4.842;2024-02-16T06:16:56;165.50;;;149.83;;
9884;SDS011;4981;50.966;4.842;2024-02-16T06:19:24;24.87;;;17.77;;
9884;SDS011;4981;50.966;4.842;2024-02-16T06:21:52;71.83;;;41.33;;
9884;SDS011;4981;50.966;4.842;2024-02-16T06:24:20;126.57;;;114.60;;
9884;SDS011;4981;50.966;4.842;2024-02-16T06:26:48;56.73;;;50.93;;
9884;SDS011;4981;50.966;4.842;2024-02-16T06:29:15;98.37;;;88.80;;
9884;SDS011;4981;50.966;4.842;2024-02-16T06:31:42;129.87;;;117.53;;
9884;SDS011;4981;50.966;4.842;2024-02-16T06:34:09;40.00;;;35.80;;
9884;SDS011;4981;50.966;4.842;2024-02-16T06:36:36;122.13;;;109.87;;
9884;SDS011;4981;50.966;4.842;2024-02-16T06:39:04;90.13;;;81.23;;
9884;SDS011;4981;50.966;4.842;2024-02-16T06:41:31;156.97;;;142.00;;
9884;SDS011;4981;50.966;4.842;2024-02-16T06:43:58;141.73;;;128.63;;
9884;SDS011;4981;50.966;4.842;2024-02-16T06:46:25;138.50;;;125.40;;
9884;SDS011;4981;50.966;4.842;2024-02-16T06:48:54;126.40;;;114.77;;
9884;SDS011;4981;50.966;4.842;2024-02-16T06:51:22;191.27;;;173.60;;
9884;SDS011;4981;50.966;4.842;2024-02-16T06:53:49;147.93;;;133.90;;
9884;SDS011;4981;50.966;4.842;2024-02-16T06:56:18;160.67;;;145.73;;
9884;SDS011;4981;50.966;4.842;2024-02-16T06:58:45;91.77;;;83.13;;
9884;SDS011;4981;50.966;4.842;2024-02-16T07:01:12;146.43;;;132.20;;
9884;SDS011;4981;50.966;4.842;2024-02-16T07:03:39;127.67;;;115.73;;
9884;SDS011;4981;50.966;4.842;2024-02-16T07:06:07;128.10;;;115.67;;
9884;SDS011;4981;50.966;4.842;2024-02-16T07:08:35;139.60;;;125.77;;
9884;SDS011;4981;50.966;4.842;2024-02-16T07:11:03;147.33;;;133.60;;
9884;SDS011;4981;50.966;4.842;2024-02-16T07:13:32;178.37;;;162.03;;
9884;SDS011;4981;50.966;4.842;2024-02-16T07:15:59;215.83;;;195.33;;
9884;SDS011;4981;50.966;4.842;2024-02-16T07:18:26;214.37;;;195.33;;
9884;SDS011;4981;50.966;4.842;2024-02-16T07:20:53;111.27;;;100.20;;
9884;SDS011;4981;50.966;4.842;2024-02-16T07:23:20;76.57;;;68.70;;
9884;SDS011;4981;50.966;4.842;2024-02-16T07:25:47;138.83;;;125.93;;
9884;SDS011;4981;50.966;4.842;2024-02-16T07:28:14;350.93;;;323.90;;
9884;SDS011;4981;50.966;4.842;2024-02-16T07:30:43;146.77;;;133.47;;
9884;SDS011;4981;50.966;4.842;2024-02-16T07:33:10;217.83;;;199.43;;
9884;SDS011;4981;50.966;4.842;2024-02-16T07:35:37;66.33;;;59.47;;
9884;SDS011;4981;50.966;4.842;2024-02-16T07:38:04;159.03;;;144.80;;
9884;SDS011;4981;50.966;4.842;2024-02-16T07:40:33;138.67;;;125.70;;
9884;SDS011;4981;50.966;4.842;2024-02-16T07:43:00;159.70;;;144.57;;
9884;SDS011;4981;50.966;4.842;2024-02-16T07:45:28;67.03;;;60.60;;
9884;SDS011;4981;50.966;4.842;2024-02-16T07:47:56;189.20;;;172.23;;
9884;SDS011;4981;50.966;4.842;2024-02-16T07:50:23;312.03;;;286.20;;
9884;SDS011;4981;50.966;4.842;2024-02-16T07:52:51;191.60;;;175.50;;
9884;SDS011;4981;50.966;4.842;2024-02-16T07:55:18;148.50;;;134.60;;
9884;SDS011;4981;50.966;4.842;2024-02-16T07:57:45;156.43;;;142.37;;
9884;SDS011;4981;50.966;4.842;2024-02-16T08:00:12;135.67;;;122.07;;
9884;SDS011;4981;50.966;4.842;2024-02-16T08:02:41;191.83;;;174.43;;
9884;SDS011;4981;50.966;4.842;2024-02-16T08:05:10;155.93;;;140.90;;
9884;SDS011;4981;50.966;4.842;2024-02-16T08:07:37;142.50;;;128.17;;
9884;SDS011;4981;50.966;4.842;2024-02-16T08:10:06;42.93;;;32.13;;
9884;SDS011;4981;50.966;4.842;2024-02-16T08:12:33;38.87;;;34.70;;
9884;SDS011;4981;50.966;4.842;2024-02-16T08:15:02;78.43;;;70.60;;
9884;SDS011;4981;50.966;4.842;2024-02-16T08:17:32;140.63;;;127.83;;
9884;SDS011;4981;50.966;4.842;2024-02-16T08:19:59;34.87;;;17.57;;
9884;SDS011;4981;50.966;4.842;2024-02-16T08:22:27;97.17;;;87.20;;
9884;SDS011;4981;50.966;4.842;2024-02-16T08:24:54;81.43;;;72.80;;
9884;SDS011;4981;50.966;4.842;2024-02-16T08:27:21;139.30;;;125.60;;
9884;SDS011;4981;50.966;4.842;2024-02-16T08:29:49;137.63;;;124.40;;
9884;SDS011;4981;50.966;4.842;2024-02-16T08:32:16;197.27;;;179.90;;
9884;SDS011;4981;50.966;4.842;2024-02-16T08:34:45;180.13;;;162.90;;
9884;SDS011;4981;50.966;4.842;2024-02-16T08:37:13;162.47;;;146.93;;
9884;SDS011;4981;50.966;4.842;2024-02-16T08:39:43;98.13;;;88.70;;
9884;SDS011;4981;50.966;4.842;2024-02-16T08:42:10;27.27;;;20.20;;
9884;SDS011;4981;50.966;4.842;2024-02-16T08:44:37;8.37;;;3.77;;
9884;SDS011;4981;50.966;4.842;2024-02-16T08:47:05;5.27;;;3.37;;
9884;SDS011;4981;50.966;4.842;2024-02-16T08:49:32;6.07;;;3.97;;
9884;SDS011;4981;50.966;4.842;2024-02-16T08:52:00;5.10;;;2.93;;
9884;SDS011;4981;50.966;4.842;2024-02-16T08:54:28;8.73;;;4.33;;
9884;SDS011;4981;50.966;4.842;2024-02-16T08:56:56;12.17;;;4.20;;
9884;SDS011;4981;50.966;4.842;2024-02-16T08:59:23;7.03;;;4.00;;
9884;SDS011;4981;50.966;4.842;2024-02-16T09:01:50;8.57;;;3.70;;
9884;SDS011;4981;50.966;4.842;2024-02-16T09:04:17;9.97;;;3.83;;
9884;SDS011;4981;50.966;4.842;2024-02-16T09:06:44;7.83;;;3.80;;
9884;SDS011;4981;50.966;4.842;2024-02-16T09:09:11;5.90;;;3.60;;
9884;SDS011;4981;50.966;4.842;2024-02-16T09:11:40;9.73;;;3.90;;
9884;SDS011;4981;50.966;4.842;2024-02-16T09:14:08;9.27;;;4.03;;
9884;SDS011;4981;50.966;4.842;2024-02-16T09:16:35;7.33;;;3.80;;
9884;SDS011;4981;50.966;4.842;2024-02-16T09:19:02;8.23;;;3.90;;
9884;SDS011;4981;50.966;4.842;2024-02-16T09:21:29;7.87;;;3.40;;
9884;SDS011;4981;50.966;4.842;2024-02-16T09:23:56;7.73;;;3.93;;
9884;SDS011;4981;50.966;4.842;2024-02-16T09:26:26;5.53;;;3.77;;
9884;SDS011;4981;50.966;4.842;2024-02-16T09:28:55;7.53;;;3.70;;
9884;SDS011;4981;50.966;4.842;2024-02-16T09:31:24;6.40;;;3.43;;
9884;SDS011;4981;50.966;4.842;2024-02-16T09:33:51;7.33;;;3.93;;
9884;SDS011;4981;50.966;4.842;2024-02-16T09:36:18;6.47;;;3.67;;
9884;SDS011;4981;50.966;4.842;2024-02-16T09:38:46;6.63;;;3.57;;
9884;SDS011;4981;50.966;4.842;2024-02-16T09:41:13;5.93;;;3.50;;
9884;SDS011;4981;50.966;4.842;2024-02-16T09:43:42;8.53;;;4.10;;
9884;SDS011;4981;50.966;4.842;2024-02-16T09:46:09;11.87;;;3.87;;
9884;SDS011;4981;50.966;4.842;2024-02-16T09:48:37;6.63;;;3.80;;
9884;SDS011;4981;50.966;4.842;2024-02-16T09:51:08;7.13;;;4.20;;
9884;SDS011;4981;50.966;4.842;2024-02-16T09:53:36;9.37;;;3.87;;
9884;SDS011;4981;50.966;4.842;2024-02-16T09:56:04;9.00;;;4.40;;
9884;SDS011;4981;50.966;4.842;2024-02-16T09:58:34;6.37;;;4.17;;
9884;SDS011;4981;50.966;4.842;2024-02-16T10:01:01;9.57;;;4.20;;
9884;SDS011;4981;50.966;4.842;2024-02-16T10:03:29;7.37;;;3.70;;
9884;SDS011;4981;50.966;4.842;2024-02-16T10:06:05;6.57;;;3.77;;
9884;SDS011;4981;50.966;4.842;2024-02-16T10:08:33;10.30;;;4.40;;
9884;SDS011;4981;50.966;4.842;2024-02-16T10:11:00;11.83;;;5.00;;
9884;SDS011;4981;50.966;4.842;2024-02-16T10:13:28;11.50;;;3.93;;
9884;SDS011;4981;50.966;4.842;2024-02-16T10:16:04;9.57;;;5.03;;
9884;SDS011;4981;50.966;4.842;2024-02-16T10:18:33;10.37;;;4.10;;
9884;SDS011;4981;50.966;4.842;2024-02-16T10:21:01;8.30;;;4.17;;
9884;SDS011;4981;50.966;4.842;2024-02-16T10:23:30;7.23;;;4.33;;
9884;SDS011;4981;50.966;4.842;2024-02-16T10:25:57;9.57;;;4.50;;
9884;SDS011;4981;50.966;4.842;2024-02-16T10:28:27;10.37;;;5.07;;
9884;SDS011;4981;50.966;4.842;2024-02-16T10:30:57;10.50;;;4.67;;
9884;SDS011;4981;50.966;4.842;2024-02-16T10:33:26;9.37;;;4.80;;
9884;SDS011;4981;50.966;4.842;2024-02-16T10:35:55;13.33;;;5.87;;
9884;SDS011;4981;50.966;4.842;2024-02-16T10:38:24;15.00;;;5.90;;
9884;SDS011;4981;50.966;4.842;2024-02-16T10:40:53;11.13;;;4.77;;
9884;SDS011;4981;50.966;4.842;2024-02-16T10:43:22;9.83;;;6.10;;
9884;SDS011;4981;50.966;4.842;2024-02-16T10:45:51;8.83;;;5.20;;
9884;SDS011;4981;50.966;4.842;2024-02-16T10:48:18;10.47;;;5.80;;
9884;SDS011;4981;50.966;4.842;2024-02-16T10:50:46;14.53;;;6.03;;
9884;SDS011;4981;50.966;4.842;2024-02-16T10:53:18;12.37;;;5.80;;
9884;SDS011;4981;50.966;4.842;2024-02-16T10:55:49;13.23;;;5.73;;
9884;SDS011;4981;50.966;4.842;2024-02-16T10:58:18;15.80;;;5.73;;
9884;SDS011;4981;50.966;4.842;2024-02-16T11:00:51;12.67;;;6.23;;
9884;SDS011;4981;50.966;4.842;2024-02-16T11:03:23;12.33;;;6.47;;
9884;SDS011;4981;50.966;4.842;2024-02-16T11:05:51;10.63;;;5.17;;
9884;SDS011;4981;50.966;4.842;2024-02-16T11:08:19;11.50;;;5.77;;
9884;SDS011;4981;50.966;4.842;2024-02-16T11:10:53;13.50;;;5.37;;
9884;SDS011;4981;50.966;4.842;2024-02-16T11:13:23;13.90;;;5.87;;
9884;SDS011;4981;50.966;4.842;2024-02-16T11:16:00;11.57;;;5.63;;
9884;SDS011;4981;50.966;4.842;2024-02-16T11:18:28;16.47;;;6.27;;
9884;SDS011;4981;50.966;4.842;2024-02-16T11:21:00;18.37;;;6.90;;
9884;SDS011;4981;50.966;4.842;2024-02-16T11:23:27;12.87;;;6.07;;
9884;SDS011;4981;50.966;4.842;2024-02-16T11:25:59;14.67;;;6.43;;
9884;SDS011;4981;50.966;4.842;2024-02-16T11:28:29;15.00;;;7.07;;
9884;SDS011;4981;50.966;4.842;2024-02-16T11:30:58;12.47;;;6.80;;
9884;SDS011;4981;50.966;4.842;2024-02-16T11:33:25;11.97;;;6.87;;
9884;SDS011;4981;50.966;4.842;2024-02-16T11:35:53;13.13;;;6.60;;
9884;SDS011;4981;50.966;4.842;2024-02-16T11:38:21;14.70;;;7.10;;
9884;SDS011;4981;50.966;4.842;2024-02-16T11:40:55;10.97;;;6.17;;
9884;SDS011;4981;50.966;4.842;2024-02-16T11:43:23;14.33;;;6.63;;
9884;SDS011;4981;50.966;4.842;2024-02-16T11:45:53;11.53;;;6.47;;
9884;SDS011;4981;50.966;4.842;2024-02-16T11:48:20;13.77;;;7.17;;
9884;SDS011;4981;50.966;4.842;2024-02-16T11:50:49;17.27;;;6.90;;
9884;SDS011;4981;50.966;4.842;2024-02-16T11:53:17;9.77;;;6.20;;
9884;SDS011;4981;50.966;4.842;2024-02-16T11:55:48;12.03;;;6.77;;
9884;SDS011;4981;50.966;4.842;2024-02-16T11:58:16;11.77;;;6.23;;
9884;SDS011;4981;50.966;4.842;2024-02-16T12:00:44;14.87;;;7.33;;
9884;SDS011;4981;50.966;4.842;2024-02-16T12:03:18;13.23;;;7.30;;
9884;SDS011;4981;50.966;4.842;2024-02-16T12:05:50;12.63;;;6.90;;
9884;SDS011;4981;50.966;4.842;2024-02-16T12:08:17;14.17;;;7.40;;
9884;SDS011;4981;50.966;4.842;2024-02-16T12:10:46;15.93;;;7.87;;
9884;SDS011;4981;50.966;4.842;2024-02-16T12:13:15;17.13;;;8.63;;
9884;SDS011;4981;50.966;4.842;2024-02-16T12:15:43;19.20;;;11.67;;
9884;SDS011;4981;50.966;4.842;2024-02-16T12:18:20;12.60;;;9.10;;
9884;SDS011;4981;50.966;4.842;2024-02-16T12:20:56;18.47;;;8.73;;
9884;SDS011;4981;50.966;4.842;2024-02-16T12:23:24;15.53;;;9.57;;
9884;SDS011;4981;50.966;4.842;2024-02-16T12:25:51;12.27;;;8.60;;
9884;SDS011;4981;50.966;4.842;2024-02-16T12:28:19;13.70;;;9.07;;
9884;SDS011;4981;50.966;4.842;2024-02-16T12:30:47;12.93;;;9.23;;
9884;SDS011;4981;50.966;4.842;2024-02-16T12:33:14;22.40;;;13.37;;
9884;SDS011;4981;50.966;4.842;2024-02-16T12:35:43;33.03;;;24.83;;
9884;SDS011;4981;50.966;4.842;2024-02-16T12:38:10;18.80;;;9.17;;
9884;SDS011;4981;50.966;4.842;2024-02-16T12:40:37;14.27;;;10.83;;
9884;SDS011;4981;50.966;4.842;2024-02-16T12:43:04;14.40;;;8.93;;
9884;SDS011;4981;50.966;4.842;2024-02-16T12:45:34;13.50;;;9.30;;
9884;SDS011;4981;50.966;4.842;2024-02-16T12:48:03;16.37;;;8.50;;
9884;SDS011;4981;50.966;4.842;2024-02-16T12:50:31;32.70;;;10.50;;
9884;SDS011;4981;50.966;4.842;2024-02-16T12:53:00;18.87;;;8.93;;
9884;SDS011;4981;50.966;4.842;2024-02-16T12:55:27;12.17;;;8.70;;
9884;SDS011;4981;50.966;4.842;2024-02-16T12:57:55;12.47;;;7.83;;
9884;SDS011;4981;50.966;4.842;2024-02-16T13:00:22;11.80;;;8.20;;
9884;SDS011;4981;50.966;4.842;2024-02-16T13:02:50;12.50;;;7.70;;
9884;SDS011;4981;50.966;4.842;2024-02-16T13:05:17;10.40;;;7.20;;
9884;SDS011;4981;50.966;4.842;2024-02-16T13:07:44;15.00;;;8.03;;
9884;SDS011;4981;50.966;4.842;2024-02-16T13:10:12;11.67;;;6.30;;
9884;SDS011;4981;50.966;4.842;2024-02-16T13:12:39;7.83;;;6.93;;
9884;SDS011;4981;50.966;4.842;2024-02-16T13:15:08;9.97;;;7.03;;
9884;SDS011;4981;50.966;4.842;2024-02-16T13:17:35;8.83;;;6.80;;
9884;SDS011;4981;50.966;4.842;2024-02-16T13:20:02;11.50;;;7.63;;
9884;SDS011;4981;50.966;4.842;2024-02-16T13:22:34;10.70;;;7.50;;
9884;SDS011;4981;50.966;4.842;2024-02-16T13:25:02;8.90;;;6.50;;
9884;SDS011;4981;50.966;4.842;2024-02-16T13:27:31;9.17;;;6.60;;
9884;SDS011;4981;50.966;4.842;2024-02-16T13:29:58;10.97;;;8.00;;
9884;SDS011;4981;50.966;4.842;2024-02-16T13:32:25;10.23;;;8.60;;
9884;SDS011;4981;50.966;4.842;2024-02-16T13:34:52;12.00;;;9.73;;
9884;SDS011;4981;50.966;4.842;2024-02-16T13:37:19;13.63;;;10.23;;
9884;SDS011;4981;50.966;4.842;2024-02-16T13:39:46;15.77;;;12.43;;
9884;SDS011;4981;50.966;4.842;2024-02-16T13:42:13;19.80;;;13.43;;
9884;SDS011;4981;50.966;4.842;2024-02-16T13:44:41;19.40;;;13.47;;
9884;SDS011;4981;50.966;4.842;2024-02-16T13:47:09;18.10;;;13.97;;
9884;SDS011;4981;50.966;4.842;2024-02-16T13:49:36;17.43;;;14.13;;
9884;SDS011;4981;50.966;4.842;2024-02-16T13:52:03;22.27;;;14.13;;
9884;SDS011;4981;50.966;4.842;2024-02-16T13:54:31;18.37;;;14.17;;
9884;SDS011;4981;50.966;4.842;2024-02-16T13:56:58;22.27;;;15.30;;
9884;SDS011;4981;50.966;4.842;2024-02-16T13:59:25;21.73;;;16.63;;
9884;SDS011;4981;50.966;4.842;2024-02-16T14:01:53;20.40;;;16.13;;
9884;SDS011;4981;50.966;4.842;2024-02-16T14:04:22;22.07;;;16.93;;
9884;SDS011;4981;50.966;4.842;2024-02-16T14:06:49;22.47;;;17.23;;
9884;SDS011;4981;50.966;4.842;2024-02-16T14:09:16;25.43;;;18.73;;
9884;SDS011;4981;50.966;4.842;2024-02-16T14:11:44;23.23;;;17.83;;
9884;SDS011;4981;50.966;4.842;2024-02-16T14:14:12;25.53;;;19.90;;
9884;SDS011;4981;50.966;4.842;2024-02-16T14:16:39;25.50;;;19.40;;
9884;SDS011;4981;50.966;4.842;2024-02-16T14:19:07;27.80;;;20.47;;
9884;SDS011;4981;50.966;4.842;2024-02-16T14:21:34;29.70;;;22.67;;
9884;SDS011;4981;50.966;4.842;2024-02-16T14:24:01;26.90;;;20.63;;
9884;SDS011;4981;50.966;4.842;2024-02-16T14:26:28;35.50;;;20.87;;
9884;SDS011;4981;50.966;4.842;2024-02-16T14:28:56;26.37;;;19.37;;
9884;SDS011;4981;50.966;4.842;2024-02-16T14:31:23;18.90;;;15.47;;
9884;SDS011;4981;50.966;4.842;2024-02-16T14:33:49;16.37;;;14.70;;
9884;SDS011;4981;50.966;4.842;2024-02-16T14:36:18;16.10;;;13.93;;
9884;SDS011;4981;50.966;4.842;2024-02-16T14:38:45;16.87;;;14.13;;
9884;SDS011;4981;50.966;4.842;2024-02-16T14:41:12;15.93;;;14.17;;
9884;SDS011;4981;50.966;4.842;2024-02-16T14:43:41;14.90;;;13.40;;
9884;SDS011;4981;50.966;4.842;2024-02-16T14:46:09;13.13;;;11.83;;
9884;SDS011;4981;50.966;4.842;2024-02-16T14:48:36;13.77;;;12.03;;
9884;SDS011;4981;50.966;4.842;2024-02-16T14:51:03;12.90;;;11.60;;